Assateague Island Natl Seashore, Maryland
Current Conditions -  °F | °C
As of 3:53 PM on Thursday 23 Oct 2014 (Local Time) from KOXB Reporting Station
Overcast Overcast  
Wind Chill: 57°   Ceiling: 3700
Heat Index: 57°   Visibility: 10mi
Dew Point: 47°   Wind: 9mph
Humidity: 69%   Direction: 320°NW
Pressure: 29.77"   Gusts: NA
Location:  38.12°N, 75.19°W
Report Text: KOXB 231953Z AUTO 32008KT 10SM OVC037 14/08 A2977 RMK AO2 PK WND 34026/1907 SLP081 T01390083 TSNO
Loading
Personal Weather Stations






























Interactive Weather Map
Tropical Storm Tracking
New forecast layout! Learn more

10-Day Weather Forecast

Advertisements
Track Severe Weather on mobile